createdAt,value
2023-07-16T00:00:30.829Z,19.00
2023-07-16T00:01:34.307Z,19.00
2023-07-16T00:02:38.303Z,18.90
2023-07-16T00:03:40.767Z,18.90
2023-07-16T00:04:43.907Z,18.90
2023-07-16T00:05:46.021Z,18.90
2023-07-16T00:06:49.146Z,18.90
2023-07-16T00:07:51.263Z,18.80
2023-07-16T00:08:54.389Z,18.80
2023-07-16T00:09:56.489Z,18.80
2023-07-16T00:11:00.896Z,18.70
2023-07-16T00:12:03.418Z,18.70
2023-07-16T00:13:05.818Z,18.70
2023-07-16T00:14:09.192Z,18.60
2023-07-16T00:15:11.629Z,18.60
2023-07-16T00:16:15.211Z,18.60
2023-07-16T00:17:17.853Z,18.60
2023-07-16T00:18:21.155Z,18.60
2023-07-16T00:19:23.249Z,18.50
2023-07-16T00:20:26.489Z,18.60
2023-07-16T00:21:28.608Z,18.50
2023-07-16T00:22:31.633Z,18.50
2023-07-16T00:23:34.070Z,18.50
2023-07-16T00:24:37.197Z,18.40
2023-07-16T00:25:39.292Z,18.40
2023-07-16T00:26:43.680Z,18.30
2023-07-16T00:27:47.222Z,18.30
2023-07-16T00:28:51.973Z,18.20
2023-07-16T00:29:54.119Z,18.20
2023-07-16T00:30:57.219Z,18.10
2023-07-16T00:31:59.368Z,18.00
2023-07-16T00:33:02.436Z,18.00
2023-07-16T00:34:04.674Z,18.00
2023-07-16T00:35:08.563Z,17.90
2023-07-16T00:36:10.647Z,17.90
2023-07-16T00:37:13.857Z,17.90
2023-07-16T00:38:16.065Z,17.80
2023-07-16T00:39:18.258Z,17.80
2023-07-16T00:40:21.438Z,17.80
2023-07-16T00:41:23.902Z,17.70
2023-07-16T00:42:29.239Z,17.70
2023-07-16T00:43:31.341Z,17.70
2023-07-16T00:44:34.513Z,17.60
2023-07-16T00:45:37.316Z,17.60
2023-07-16T00:46:40.807Z,17.60
2023-07-16T00:47:44.459Z,17.50
2023-07-16T00:48:46.721Z,17.50
2023-07-16T00:49:49.828Z,17.50
2023-07-16T00:50:53.465Z,17.50
2023-07-16T00:51:57.144Z,17.40
2023-07-16T00:52:59.254Z,17.40
2023-07-16T00:54:03.152Z,17.40
2023-07-16T00:55:06.691Z,17.30
2023-07-16T00:56:11.104Z,17.20
2023-07-16T00:57:13.231Z,17.20
2023-07-16T00:58:17.843Z,17.10
2023-07-16T00:59:20.024Z,17.10
2023-07-16T01:00:23.273Z,17.10
2023-07-16T01:01:25.449Z,17.00
2023-07-16T01:02:28.804Z,17.00
2023-07-16T01:03:31.811Z,17.00
2023-07-16T01:04:34.940Z,16.90
2023-07-16T01:05:46.015Z,16.90
2023-07-16T01:06:53.462Z,16.90
2023-07-16T01:07:59.609Z,16.80
2023-07-16T01:09:04.918Z,16.80
2023-07-16T01:10:09.414Z,16.70
2023-07-16T01:11:12.197Z,16.70
2023-07-16T01:12:15.967Z,16.70
2023-07-16T01:13:20.482Z,16.70
2023-07-16T01:14:24.881Z,16.70
2023-07-16T01:15:27.230Z,16.70
2023-07-16T01:16:30.466Z,16.70
2023-07-16T01:17:32.671Z,16.70
2023-07-16T01:18:36.199Z,16.70
2023-07-16T01:19:38.468Z,16.70
2023-07-16T01:20:41.586Z,16.70
2023-07-16T01:21:49.411Z,16.70
2023-07-16T01:23:29.531Z,16.80
2023-07-16T01:24:55.040Z,16.80
2023-07-16T01:26:10.481Z,16.90
2023-07-16T01:27:45.292Z,17.00
2023-07-16T01:29:33.150Z,17.00
2023-07-16T01:30:38.779Z,16.90
2023-07-16T01:31:42.707Z,16.90
2023-07-16T01:32:46.881Z,16.90
2023-07-16T01:33:51.037Z,16.90
2023-07-16T01:34:54.538Z,16.90
2023-07-16T01:35:59.670Z,16.90
2023-07-16T01:37:02.657Z,16.90
2023-07-16T01:38:05.756Z,16.90
2023-07-16T01:39:08.165Z,16.90
2023-07-16T01:40:12.236Z,16.90
2023-07-16T01:41:14.444Z,16.90
2023-07-16T01:42:18.116Z,17.00
2023-07-16T01:43:20.367Z,17.00
2023-07-16T01:44:23.781Z,17.00
2023-07-16T01:45:27.506Z,17.00
2023-07-16T01:46:31.542Z,17.00
2023-07-16T01:47:41.145Z,16.90
2023-07-16T01:48:47.452Z,16.90
2023-07-16T01:49:50.093Z,16.90
2023-07-16T01:50:53.181Z,16.90
2023-07-16T01:51:55.918Z,16.80
2023-07-16T01:52:59.190Z,16.80
2023-07-16T01:54:01.664Z,16.80
2023-07-16T01:55:05.075Z,16.80
2023-07-16T01:56:07.808Z,16.80
2023-07-16T01:57:11.119Z,16.80
2023-07-16T01:58:13.231Z,16.80
2023-07-16T01:59:16.301Z,16.80
2023-07-16T02:00:18.991Z,16.70
2023-07-16T02:01:28.172Z,16.70
2023-07-16T02:02:31.426Z,16.70
2023-07-16T02:03:34.015Z,16.60
2023-07-16T02:04:37.166Z,16.70
2023-07-16T02:05:39.316Z,16.70
2023-07-16T02:06:42.452Z,16.60
2023-07-16T02:07:44.681Z,16.60
2023-07-16T02:08:48.388Z,16.50
2023-07-16T02:09:50.639Z,16.40
2023-07-16T02:10:53.652Z,16.40
2023-07-16T02:11:55.775Z,16.30
2023-07-16T02:12:59.264Z,16.30
2023-07-16T02:14:01.351Z,16.20
2023-07-16T02:15:04.809Z,16.20
2023-07-16T02:16:12.024Z,16.20
2023-07-16T02:17:18.569Z,16.10
2023-07-16T02:18:20.651Z,16.10
2023-07-16T02:19:24.428Z,16.00
2023-07-16T02:20:26.736Z,16.10
2023-07-16T02:21:30.324Z,16.00
2023-07-16T02:22:32.631Z,16.00
2023-07-16T02:23:35.772Z,16.00
2023-07-16T02:24:38.225Z,16.00
2023-07-16T02:25:41.472Z,16.00
2023-07-16T02:26:43.966Z,16.00
2023-07-16T02:27:48.900Z,15.90
2023-07-16T02:28:51.090Z,15.90
2023-07-16T02:29:54.137Z,16.00
2023-07-16T02:30:56.631Z,15.90
2023-07-16T02:31:59.904Z,15.90
2023-07-16T02:33:03.586Z,15.90
2023-07-16T02:34:06.862Z,15.90
2023-07-16T02:35:09.704Z,15.90
2023-07-16T02:36:12.826Z,15.90
2023-07-16T02:37:15.021Z,15.90
2023-07-16T02:38:18.593Z,15.90
2023-07-16T02:39:20.728Z,15.90
2023-07-16T02:40:24.944Z,15.90
2023-07-16T02:41:27.119Z,15.90
2023-07-16T02:42:30.944Z,15.90
2023-07-16T02:43:33.075Z,15.90
2023-07-16T02:44:39.431Z,15.90
2023-07-16T02:45:41.811Z,15.90
2023-07-16T02:46:45.349Z,15.90
2023-07-16T02:47:47.691Z,15.90
2023-07-16T02:48:53.261Z,15.90
2023-07-16T02:49:56.455Z,15.90
2023-07-16T02:50:58.524Z,16.00
2023-07-16T02:52:01.711Z,16.00
2023-07-16T02:53:04.760Z,16.00
2023-07-16T02:54:08.065Z,16.10
2023-07-16T02:55:10.375Z,16.10
2023-07-16T02:56:13.495Z,16.10
2023-07-16T02:57:15.868Z,16.10
2023-07-16T02:58:19.152Z,16.10
2023-07-16T02:59:21.285Z,16.10
2023-07-16T03:00:24.506Z,16.10
2023-07-16T03:01:27.161Z,16.10
2023-07-16T03:02:30.298Z,16.10
2023-07-16T03:03:35.789Z,16.20
2023-07-16T03:04:40.518Z,16.20
2023-07-16T03:05:42.603Z,16.20
2023-07-16T03:06:45.708Z,16.10
2023-07-16T03:07:47.816Z,16.10
2023-07-16T03:08:51.991Z,16.10
2023-07-16T03:09:54.703Z,16.10
2023-07-16T03:10:59.457Z,16.10
2023-07-16T03:12:02.421Z,16.10
2023-07-16T03:13:06.021Z,16.00
2023-07-16T03:14:08.740Z,16.00
2023-07-16T03:15:12.493Z,16.00
2023-07-16T03:16:15.283Z,16.00
2023-07-16T03:17:19.002Z,16.00
2023-07-16T03:18:21.213Z,16.00
2023-07-16T03:19:24.268Z,15.90
2023-07-16T03:20:28.334Z,15.90
2023-07-16T03:21:31.563Z,15.90
2023-07-16T03:22:34.258Z,15.90
2023-07-16T03:23:36.912Z,15.90
2023-07-16T03:24:40.005Z,15.90
2023-07-16T03:25:42.522Z,15.80
2023-07-16T03:26:45.899Z,15.80
2023-07-16T03:27:48.659Z,15.80
2023-07-16T03:28:51.735Z,15.80
2023-07-16T03:29:53.968Z,15.80
2023-07-16T03:30:57.273Z,15.80
2023-07-16T03:31:59.612Z,15.80
2023-07-16T03:33:02.754Z,15.70
2023-07-16T03:34:04.879Z,15.70
2023-07-16T03:35:08.893Z,15.70
2023-07-16T03:36:13.693Z,15.70
2023-07-16T03:37:16.098Z,15.70
2023-07-16T03:38:19.198Z,15.70
2023-07-16T03:39:21.380Z,15.70
2023-07-16T03:40:27.131Z,15.70
2023-07-16T03:41:29.227Z,15.70
2023-07-16T03:42:32.477Z,15.70
2023-07-16T03:43:34.625Z,15.70
2023-07-16T03:44:49.781Z,15.70
2023-07-16T03:45:52.107Z,15.60
2023-07-16T03:46:55.246Z,15.60
2023-07-16T03:47:57.483Z,15.60
2023-07-16T03:49:00.610Z,15.60
2023-07-16T03:50:03.974Z,15.60
2023-07-16T03:51:07.024Z,15.60
2023-07-16T03:52:10.472Z,15.60
2023-07-16T03:53:13.965Z,15.60
2023-07-16T03:54:16.078Z,15.60
2023-07-16T03:55:20.686Z,15.60
2023-07-16T03:56:22.808Z,15.60
2023-07-16T03:57:25.936Z,15.60
2023-07-16T03:58:30.235Z,15.60
2023-07-16T03:59:33.271Z,15.60
2023-07-16T04:00:35.579Z,15.60
2023-07-16T04:01:38.748Z,15.60
2023-07-16T04:02:41.105Z,15.60
2023-07-16T04:03:47.441Z,15.60
2023-07-16T04:04:49.658Z,15.60
2023-07-16T04:05:52.752Z,15.60
2023-07-16T04:06:55.036Z,15.60
2023-07-16T04:07:58.486Z,15.60
2023-07-16T04:09:01.714Z,15.60
2023-07-16T04:10:04.264Z,15.60
2023-07-16T04:11:08.358Z,15.60
2023-07-16T04:12:10.519Z,15.60
2023-07-16T04:13:13.726Z,15.60
2023-07-16T04:14:15.783Z,15.70
2023-07-16T04:15:18.844Z,15.70
2023-07-16T04:16:21.346Z,15.70
2023-07-16T04:17:24.603Z,15.70
2023-07-16T04:18:27.058Z,15.70
2023-07-16T04:19:30.890Z,15.70
2023-07-16T04:20:34.759Z,15.70
2023-07-16T04:21:38.202Z,15.70
2023-07-16T04:22:40.728Z,15.70
2023-07-16T04:23:45.169Z,15.80
2023-07-16T04:24:47.267Z,15.80
2023-07-16T04:25:54.053Z,15.80
2023-07-16T04:26:56.444Z,15.90
2023-07-16T04:27:59.713Z,15.90
2023-07-16T04:29:01.783Z,16.00
2023-07-16T04:30:05.218Z,16.10
2023-07-16T04:31:08.117Z,16.10
2023-07-16T04:32:11.453Z,16.20
2023-07-16T04:33:13.564Z,16.30
2023-07-16T04:34:16.637Z,16.30
2023-07-16T04:35:19.214Z,16.40
2023-07-16T04:36:22.550Z,16.40
2023-07-16T04:37:24.656Z,16.40
2023-07-16T04:38:28.452Z,16.40
2023-07-16T04:39:31.897Z,16.40
2023-07-16T04:40:34.943Z,16.30
2023-07-16T04:41:37.454Z,16.30
2023-07-16T04:42:40.666Z,16.30
2023-07-16T04:43:42.877Z,16.30
2023-07-16T04:44:45.956Z,16.20
2023-07-16T04:45:48.185Z,16.20
2023-07-16T04:46:51.488Z,16.20
2023-07-16T04:47:53.645Z,16.20
2023-07-16T04:48:56.732Z,16.30
2023-07-16T04:50:00.287Z,16.30
2023-07-16T04:51:03.498Z,16.30
2023-07-16T04:52:06.845Z,16.30
2023-07-16T04:53:10.606Z,16.30
2023-07-16T04:54:12.675Z,16.30
2023-07-16T04:55:17.171Z,16.30
2023-07-16T04:56:19.654Z,16.30
2023-07-16T04:57:23.863Z,16.40
2023-07-16T04:58:26.286Z,16.40
2023-07-16T04:59:29.548Z,16.40
2023-07-16T05:00:32.912Z,16.40
2023-07-16T05:01:36.000Z,16.40
2023-07-16T05:02:38.202Z,16.40
2023-07-16T05:03:41.531Z,16.40
2023-07-16T05:04:45.238Z,16.40
2023-07-16T05:05:48.334Z,16.40
2023-07-16T05:06:50.567Z,16.40
2023-07-16T05:07:53.927Z,16.40
2023-07-16T05:08:56.182Z,16.40
2023-07-16T05:09:59.432Z,16.50
2023-07-16T05:11:02.907Z,16.50
2023-07-16T05:12:07.272Z,16.50
2023-07-16T05:13:09.365Z,16.50
2023-07-16T05:14:12.421Z,16.50
2023-07-16T05:15:14.956Z,16.50
2023-07-16T05:16:18.409Z,16.50
2023-07-16T05:17:20.810Z,16.60
2023-07-16T05:18:24.957Z,16.60
2023-07-16T05:19:27.045Z,16.60
2023-07-16T05:20:30.208Z,16.70
2023-07-16T05:21:32.405Z,16.70
2023-07-16T05:22:35.892Z,16.70
2023-07-16T05:23:38.009Z,16.80
2023-07-16T05:24:41.556Z,16.90
2023-07-16T05:25:47.776Z,16.90
2023-07-16T05:26:52.695Z,16.90
2023-07-16T05:27:55.268Z,17.00
2023-07-16T05:28:58.816Z,17.10
2023-07-16T05:30:00.903Z,17.10
2023-07-16T05:31:05.243Z,17.20
2023-07-16T05:32:08.451Z,17.30
2023-07-16T05:33:11.876Z,17.30
2023-07-16T05:34:14.249Z,17.40
2023-07-16T05:35:17.933Z,17.50
2023-07-16T05:36:20.393Z,17.60
2023-07-16T05:37:23.544Z,17.70
2023-07-16T05:38:25.644Z,17.80
2023-07-16T05:39:28.833Z,17.90
2023-07-16T05:40:31.000Z,18.00
2023-07-16T05:41:34.062Z,18.10
2023-07-16T05:42:37.710Z,18.20
2023-07-16T05:43:40.763Z,18.20
2023-07-16T05:44:43.854Z,18.30
2023-07-16T05:45:47.046Z,18.20
2023-07-16T05:46:49.548Z,18.30
2023-07-16T05:47:52.670Z,18.20
2023-07-16T05:48:54.795Z,18.20
2023-07-16T05:49:57.093Z,18.20
2023-07-16T05:51:00.194Z,18.20
2023-07-16T05:52:02.348Z,18.30
2023-07-16T05:53:05.462Z,18.40
2023-07-16T05:54:07.665Z,18.40
2023-07-16T05:55:10.736Z,18.50
2023-07-16T05:56:13.480Z,18.60
2023-07-16T05:57:17.178Z,18.70
2023-07-16T05:58:20.660Z,18.70
2023-07-16T05:59:23.704Z,18.80
2023-07-16T06:00:26.048Z,18.80
2023-07-16T06:01:29.375Z,18.90
2023-07-16T06:02:31.545Z,19.50
2023-07-16T06:03:34.660Z,20.40
2023-07-16T06:04:36.787Z,21.20
2023-07-16T06:05:39.871Z,22.10
2023-07-16T06:06:42.109Z,22.30
2023-07-16T06:07:45.224Z,23.00
2023-07-16T06:08:47.454Z,23.50
2023-07-16T06:09:50.606Z,24.00
2023-07-16T06:10:52.918Z,24.50
2023-07-16T06:11:55.994Z,24.70
2023-07-16T06:12:58.160Z,24.60
2023-07-16T06:14:02.853Z,24.50
2023-07-16T06:15:05.631Z,25.00
2023-07-16T06:16:09.031Z,25.70
2023-07-16T06:17:11.138Z,26.00
2023-07-16T06:18:16.284Z,26.30
2023-07-16T06:19:19.138Z,26.60
2023-07-16T06:20:21.207Z,26.90
2023-07-16T06:21:24.322Z,27.10
2023-07-16T06:22:26.418Z,27.60
2023-07-16T06:23:29.786Z,28.30
2023-07-16T06:24:31.870Z,28.50
2023-07-16T06:25:34.903Z,28.10
2023-07-16T06:26:37.429Z,28.10
2023-07-16T06:27:40.579Z,27.80
2023-07-16T06:28:42.627Z,27.70
2023-07-16T06:29:47.014Z,27.80
2023-07-16T06:30:49.945Z,27.70
2023-07-16T06:32:02.076Z,28.20
2023-07-16T06:33:04.366Z,28.20
2023-07-16T06:34:07.434Z,28.00
2023-07-16T06:35:10.173Z,27.70
2023-07-16T06:36:12.223Z,27.60
2023-07-16T06:37:15.320Z,27.70
2023-07-16T06:38:17.464Z,27.90
2023-07-16T06:39:20.584Z,28.00
2023-07-16T06:40:22.810Z,28.50
2023-07-16T06:41:26.044Z,28.80
2023-07-16T06:42:28.138Z,28.60
2023-07-16T06:43:31.157Z,28.80
2023-07-16T06:44:33.267Z,28.50
2023-07-16T06:45:37.774Z,27.80
2023-07-16T06:46:40.026Z,26.80
2023-07-16T06:47:43.284Z,26.70
2023-07-16T06:48:45.373Z,26.70
2023-07-16T06:49:48.450Z,26.90
2023-07-16T06:50:51.341Z,26.90
2023-07-16T06:51:54.516Z,27.00
2023-07-16T06:52:57.564Z,27.00
2023-07-16T06:54:01.913Z,26.90
2023-07-16T06:55:04.697Z,26.90
2023-07-16T06:56:07.764Z,27.10
2023-07-16T06:57:09.838Z,27.70
2023-07-16T06:58:13.559Z,28.50
2023-07-16T06:59:15.647Z,29.20
2023-07-16T07:00:19.664Z,30.00
2023-07-16T07:01:24.714Z,30.30
2023-07-16T07:02:27.828Z,30.20
2023-07-16T07:03:30.302Z,29.90
2023-07-16T07:04:33.480Z,29.70
2023-07-16T07:05:37.109Z,30.10
2023-07-16T07:06:40.234Z,30.60
2023-07-16T07:07:43.541Z,31.40
2023-07-16T07:08:46.593Z,31.10
2023-07-16T07:09:49.751Z,31.20
2023-07-16T07:10:52.796Z,31.20
2023-07-16T07:11:54.850Z,30.50
2023-07-16T07:12:57.871Z,29.70
2023-07-16T07:14:00.050Z,29.30
2023-07-16T07:15:03.183Z,29.20
2023-07-16T07:16:05.318Z,29.10
2023-07-16T07:17:09.729Z,28.90
2023-07-16T07:18:11.839Z,29.00
2023-07-16T07:19:14.943Z,29.20
2023-07-16T07:20:17.121Z,29.60
2023-07-16T07:21:20.568Z,29.20
2023-07-16T07:22:23.081Z,28.90
2023-07-16T07:23:26.334Z,28.60
2023-07-16T07:24:28.662Z,28.50
2023-07-16T07:25:31.911Z,27.80
2023-07-16T07:26:34.116Z,27.00
2023-07-16T07:27:37.174Z,26.30
2023-07-16T07:28:39.496Z,25.90
2023-07-16T07:29:42.847Z,26.10
2023-07-16T07:30:45.802Z,26.00
2023-07-16T07:31:49.171Z,26.20
2023-07-16T07:32:52.675Z,26.10
2023-07-16T07:33:58.121Z,26.20
2023-07-16T07:35:03.094Z,26.50
2023-07-16T07:36:07.295Z,26.30
2023-07-16T07:37:09.986Z,25.90
2023-07-16T07:38:13.256Z,25.50
2023-07-16T07:39:15.341Z,25.30
2023-07-16T07:40:18.599Z,25.60
2023-07-16T07:41:20.653Z,26.40
2023-07-16T07:42:25.968Z,27.60
2023-07-16T07:43:28.885Z,28.20
2023-07-16T07:44:31.891Z,28.60
2023-07-16T07:45:33.956Z,29.20
2023-07-16T07:46:37.006Z,29.80
2023-07-16T07:47:39.167Z,29.90
2023-07-16T07:48:43.619Z,30.10
2023-07-16T07:49:45.693Z,30.30
2023-07-16T07:50:52.032Z,30.30
2023-07-16T07:51:56.222Z,30.60
2023-07-16T07:52:59.281Z,31.10
2023-07-16T07:54:01.440Z,30.90
2023-07-16T07:55:04.910Z,30.00
2023-07-16T07:56:06.983Z,29.30
2023-07-16T07:57:10.288Z,29.10
2023-07-16T07:58:12.638Z,29.50
2023-07-16T07:59:15.702Z,30.10
2023-07-16T08:00:18.091Z,30.90
2023-07-16T08:01:21.513Z,31.10
2023-07-16T08:02:25.150Z,31.40
2023-07-16T08:03:28.557Z,31.60
2023-07-16T08:04:33.241Z,31.60
2023-07-16T08:05:36.551Z,31.90
2023-07-16T08:06:38.751Z,32.70
2023-07-16T08:07:40.850Z,32.80
2023-07-16T08:08:43.961Z,32.80
2023-07-16T08:09:46.828Z,33.50
2023-07-16T08:10:50.138Z,33.90
2023-07-16T08:11:52.241Z,33.90
2023-07-16T08:12:55.320Z,33.90
2023-07-16T08:13:57.388Z,34.30
2023-07-16T08:15:00.484Z,35.00
2023-07-16T08:16:02.593Z,34.30
2023-07-16T08:17:06.339Z,33.50
2023-07-16T08:18:08.658Z,33.70
2023-07-16T08:19:11.796Z,34.20
2023-07-16T08:20:15.246Z,34.90
2023-07-16T08:21:21.121Z,34.60
2023-07-16T08:22:24.991Z,34.50
2023-07-16T08:23:28.642Z,34.40
2023-07-16T08:24:30.702Z,33.80
2023-07-16T08:25:33.746Z,32.90
2023-07-16T08:26:35.828Z,31.80
2023-07-16T08:27:39.577Z,31.00
2023-07-16T08:28:43.325Z,30.50
2023-07-16T08:29:46.462Z,30.00
2023-07-16T08:30:49.157Z,30.10
2023-07-16T08:31:52.883Z,29.70
2023-07-16T08:32:54.966Z,29.30
2023-07-16T08:33:58.469Z,28.60
2023-07-16T08:35:01.985Z,28.10
2023-07-16T08:36:06.910Z,27.80
2023-07-16T08:37:09.012Z,27.60
2023-07-16T08:38:11.263Z,27.30
2023-07-16T08:39:14.324Z,27.30
2023-07-16T08:40:16.782Z,27.90
2023-07-16T08:41:18.966Z,28.60
2023-07-16T08:42:22.525Z,29.00
2023-07-16T08:43:25.469Z,29.40
2023-07-16T08:44:30.319Z,29.70
2023-07-16T08:45:37.157Z,29.80
2023-07-16T08:46:41.431Z,30.30
2023-07-16T08:47:43.559Z,30.80
2023-07-16T08:48:48.025Z,31.30
2023-07-16T08:49:55.945Z,31.90
2023-07-16T08:51:00.747Z,32.30
2023-07-16T08:52:05.568Z,32.30
2023-07-16T08:53:09.143Z,31.80
2023-07-16T08:54:12.162Z,32.00
2023-07-16T08:55:15.315Z,31.60
2023-07-16T08:56:18.553Z,31.00
2023-07-16T08:57:22.628Z,30.60
2023-07-16T08:58:25.768Z,30.80
2023-07-16T08:59:29.416Z,30.50
2023-07-16T09:00:31.800Z,30.10
2023-07-16T09:01:34.850Z,29.50
2023-07-16T09:02:37.129Z,29.80
2023-07-16T09:03:40.555Z,30.30
2023-07-16T09:04:42.633Z,30.60
2023-07-16T09:05:46.771Z,31.30
2023-07-16T09:06:49.127Z,31.70
2023-07-16T09:07:53.714Z,31.80
2023-07-16T09:08:56.557Z,32.10
2023-07-16T09:10:01.112Z,31.90
2023-07-16T09:11:03.757Z,31.60
2023-07-16T09:12:07.755Z,31.70
2023-07-16T09:13:10.405Z,32.40
2023-07-16T09:14:16.808Z,33.00
2023-07-16T09:15:20.166Z,33.50
2023-07-16T09:16:23.492Z,33.40
2023-07-16T09:17:26.791Z,33.00
2023-07-16T09:18:30.536Z,32.90
2023-07-16T09:19:33.709Z,32.30
2023-07-16T09:20:36.724Z,31.90
2023-07-16T09:21:38.887Z,31.80
2023-07-16T09:22:41.986Z,31.10
2023-07-16T09:23:45.831Z,31.40
2023-07-16T09:24:49.660Z,31.00
2023-07-16T09:25:51.820Z,31.00
2023-07-16T09:26:58.163Z,31.20
2023-07-16T09:28:04.025Z,31.60
2023-07-16T09:29:08.640Z,31.70
2023-07-16T09:30:17.086Z,31.50
2023-07-16T09:31:20.296Z,31.40
2023-07-16T09:32:22.458Z,31.30
2023-07-16T09:33:27.268Z,31.10
2023-07-16T09:34:30.601Z,30.80
2023-07-16T09:35:37.665Z,30.40
2023-07-16T09:36:40.139Z,29.60
2023-07-16T09:37:44.070Z,29.00
2023-07-16T09:38:47.931Z,28.70
2023-07-16T09:39:51.176Z,28.30
2023-07-16T09:40:53.717Z,28.00
2023-07-16T09:41:58.562Z,27.90
2023-07-16T09:43:02.604Z,28.30
2023-07-16T09:44:05.912Z,28.20
2023-07-16T09:45:09.251Z,28.00
2023-07-16T09:46:12.302Z,28.10
2023-07-16T09:47:14.596Z,28.20
2023-07-16T09:48:17.904Z,28.30
2023-07-16T09:49:20.131Z,27.70
2023-07-16T09:50:25.966Z,27.60
2023-07-16T09:51:31.407Z,27.30
2023-07-16T09:52:34.954Z,26.90
2023-07-16T09:53:39.012Z,26.40
2023-07-16T09:54:43.941Z,26.20
2023-07-16T09:55:47.341Z,26.10
2023-07-16T09:56:54.512Z,25.90
2023-07-16T09:57:59.049Z,25.60
2023-07-16T09:59:04.269Z,25.40
2023-07-16T10:00:12.703Z,25.10
2023-07-16T10:01:20.578Z,25.00
2023-07-16T10:02:23.323Z,25.00
2023-07-16T10:03:26.833Z,24.90
2023-07-16T10:04:40.040Z,24.90
2023-07-16T10:05:43.256Z,24.60
2023-07-16T10:06:52.765Z,24.60
2023-07-16T10:07:59.986Z,24.50
2023-07-16T10:09:03.070Z,24.30
2023-07-16T10:10:12.904Z,24.00
2023-07-16T10:11:18.123Z,23.90
2023-07-16T10:12:22.684Z,23.80
2023-07-16T10:13:25.471Z,23.90
2023-07-16T10:14:28.598Z,24.00
2023-07-16T10:15:31.102Z,24.30
2023-07-16T10:16:40.137Z,24.30
2023-07-16T10:17:51.560Z,24.40
2023-07-16T10:18:55.362Z,24.20
2023-07-16T10:19:59.467Z,24.20
2023-07-16T10:21:04.312Z,24.40
2023-07-16T10:22:06.429Z,24.50
2023-07-16T10:23:13.881Z,24.60
2023-07-16T10:24:19.378Z,25.30
2023-07-16T10:25:28.719Z,26.30
2023-07-16T10:26:31.187Z,26.90
2023-07-16T10:27:35.563Z,27.30
2023-07-16T10:28:38.955Z,27.50
2023-07-16T10:29:41.978Z,27.60
2023-07-16T10:30:44.155Z,27.50
2023-07-16T10:31:48.280Z,27.60
2023-07-16T10:32:52.568Z,28.00
2023-07-16T10:34:01.624Z,28.00
2023-07-16T10:35:05.073Z,28.00
2023-07-16T10:36:08.117Z,28.10
2023-07-16T10:37:10.186Z,27.90
2023-07-16T10:38:16.449Z,27.50
2023-07-16T10:39:19.973Z,27.10
2023-07-16T10:40:23.006Z,26.80
2023-07-16T10:41:26.951Z,26.40
2023-07-16T10:42:29.302Z,26.00
2023-07-16T10:43:33.033Z,25.70
2023-07-16T10:44:35.957Z,25.70
2023-07-16T10:45:39.485Z,25.80
2023-07-16T10:46:43.260Z,26.00
2023-07-16T10:47:54.622Z,26.30
2023-07-16T10:48:56.743Z,26.30
2023-07-16T10:50:00.383Z,26.40
2023-07-16T10:51:02.439Z,26.90
2023-07-16T10:52:06.171Z,27.70
2023-07-16T10:53:08.497Z,28.30
2023-07-16T10:54:11.655Z,28.80
2023-07-16T10:55:13.741Z,29.60
2023-07-16T10:56:17.142Z,30.30
2023-07-16T10:57:21.217Z,30.60
2023-07-16T10:58:25.046Z,31.20
2023-07-16T10:59:27.220Z,32.00
2023-07-16T11:00:31.227Z,32.70
2023-07-16T11:01:34.723Z,33.20
2023-07-16T11:02:42.296Z,33.70
2023-07-16T11:03:44.555Z,34.00
2023-07-16T11:04:48.807Z,34.60
2023-07-16T11:05:51.311Z,33.70
2023-07-16T11:06:54.425Z,33.00
2023-07-16T11:07:56.499Z,32.60
2023-07-16T11:09:08.433Z,32.80
2023-07-16T11:10:10.911Z,32.90
2023-07-16T11:11:14.017Z,32.80
2023-07-16T11:12:17.829Z,32.50
2023-07-16T11:13:22.256Z,32.00
2023-07-16T11:14:24.867Z,32.00
2023-07-16T11:15:35.367Z,32.00
2023-07-16T11:16:39.002Z,31.60
2023-07-16T11:17:42.313Z,31.10
2023-07-16T11:18:45.205Z,30.50
2023-07-16T11:19:49.966Z,30.50
2023-07-16T11:20:53.604Z,30.70
2023-07-16T11:21:56.730Z,30.90
2023-07-16T11:22:59.896Z,30.80
2023-07-16T11:24:15.445Z,30.30
2023-07-16T11:25:17.931Z,30.40
2023-07-16T11:26:21.444Z,30.50
2023-07-16T11:27:24.821Z,30.70
2023-07-16T11:28:39.316Z,30.80
2023-07-16T11:29:43.147Z,30.70
2023-07-16T11:30:46.511Z,30.60
2023-07-16T11:31:50.897Z,30.10
2023-07-16T11:32:55.235Z,29.70
2023-07-16T11:34:01.775Z,29.90
2023-07-16T11:35:06.438Z,30.00
2023-07-16T11:36:08.718Z,30.50
2023-07-16T11:37:12.055Z,30.70
2023-07-16T11:38:15.220Z,30.90
2023-07-16T11:39:17.801Z,30.40
2023-07-16T11:40:21.856Z,30.30
2023-07-16T11:41:24.079Z,30.40
2023-07-16T11:42:30.140Z,30.50
2023-07-16T11:43:38.354Z,30.40
2023-07-16T11:44:40.629Z,30.10
2023-07-16T11:45:50.106Z,29.70
2023-07-16T11:46:52.331Z,29.60
2023-07-16T11:47:56.203Z,29.80
2023-07-16T11:49:00.237Z,30.00
2023-07-16T11:50:03.281Z,30.60
2023-07-16T11:51:05.506Z,30.40
2023-07-16T11:52:09.779Z,30.00
2023-07-16T11:53:12.102Z,30.10
2023-07-16T11:54:15.428Z,29.80
2023-07-16T11:55:17.617Z,29.50
2023-07-16T11:56:20.681Z,29.20
2023-07-16T11:57:22.900Z,29.20
2023-07-16T11:58:25.908Z,29.50
2023-07-16T11:59:29.325Z,30.00
2023-07-16T12:00:32.613Z,30.10
2023-07-16T12:01:34.841Z,30.30
2023-07-16T12:02:37.970Z,30.50
2023-07-16T12:03:40.116Z,30.70
2023-07-16T12:04:43.381Z,31.00
2023-07-16T12:05:53.297Z,31.00
2023-07-16T12:06:57.427Z,31.30
2023-07-16T12:07:59.517Z,31.60
2023-07-16T12:09:02.564Z,31.60
2023-07-16T12:10:07.269Z,31.70
2023-07-16T12:11:11.088Z,31.50
2023-07-16T12:12:13.153Z,31.00
2023-07-16T12:13:16.288Z,31.10
2023-07-16T12:14:18.381Z,31.10
2023-07-16T12:15:22.816Z,30.80
2023-07-16T12:16:25.142Z,30.70
2023-07-16T12:17:28.461Z,30.80
2023-07-16T12:18:31.716Z,30.90
2023-07-16T12:19:34.700Z,31.00
2023-07-16T12:20:37.467Z,30.80
2023-07-16T12:21:40.512Z,30.50
2023-07-16T12:22:42.752Z,30.00
2023-07-16T12:23:45.841Z,29.50
2023-07-16T12:24:48.061Z,29.20
2023-07-16T12:25:51.997Z,29.20
2023-07-16T12:26:54.074Z,29.30
2023-07-16T12:27:59.101Z,29.20
2023-07-16T12:29:03.889Z,28.80
2023-07-16T12:30:08.747Z,28.60
2023-07-16T12:31:12.327Z,28.70
2023-07-16T12:32:16.041Z,28.90
2023-07-16T12:33:18.182Z,28.90
2023-07-16T12:34:21.361Z,28.70
2023-07-16T12:35:23.440Z,28.50
2023-07-16T12:36:26.908Z,28.40
2023-07-16T12:37:29.054Z,28.50
2023-07-16T12:38:32.501Z,28.50
2023-07-16T12:39:34.622Z,28.50
2023-07-16T12:40:41.707Z,28.60
2023-07-16T12:41:45.414Z,28.70
2023-07-16T12:42:47.592Z,29.20
2023-07-16T12:43:50.625Z,29.50
2023-07-16T12:44:53.395Z,29.80
2023-07-16T12:45:56.663Z,29.90
2023-07-16T12:47:00.180Z,30.00
2023-07-16T12:48:03.252Z,30.20
2023-07-16T12:49:05.391Z,30.20
2023-07-16T12:50:09.612Z,30.60
2023-07-16T12:51:11.720Z,31.00
2023-07-16T12:52:14.941Z,31.20
2023-07-16T12:53:17.185Z,31.00
2023-07-16T12:54:20.240Z,30.70
2023-07-16T12:55:22.501Z,30.40
2023-07-16T12:56:26.233Z,30.70
2023-07-16T12:57:28.483Z,31.10
2023-07-16T12:58:31.532Z,31.40
2023-07-16T12:59:33.633Z,31.70
2023-07-16T13:00:37.057Z,32.10
2023-07-16T13:01:39.237Z,31.90
2023-07-16T13:02:43.706Z,31.60
2023-07-16T13:03:45.990Z,31.20
2023-07-16T13:04:49.199Z,30.90
2023-07-16T13:05:51.329Z,30.80
2023-07-16T13:06:54.781Z,30.70
2023-07-16T13:07:57.000Z,30.90
2023-07-16T13:09:00.289Z,30.90
2023-07-16T13:10:17.482Z,30.90
2023-07-16T13:11:23.217Z,31.20
2023-07-16T13:12:25.318Z,31.20
2023-07-16T13:13:28.388Z,31.20
2023-07-16T13:14:30.734Z,31.20
2023-07-16T13:15:33.545Z,31.40
2023-07-16T13:16:36.718Z,31.50
2023-07-16T13:17:39.095Z,31.20
2023-07-16T13:18:44.172Z,31.50
2023-07-16T13:19:48.326Z,31.70
2023-07-16T13:20:51.573Z,32.10
2023-07-16T13:21:53.692Z,32.10
2023-07-16T13:22:56.194Z,31.80
2023-07-16T13:23:59.282Z,32.00
2023-07-16T13:25:01.372Z,32.10
2023-07-16T13:26:04.402Z,32.10
2023-07-16T13:27:06.641Z,32.30
2023-07-16T13:28:09.775Z,32.20
2023-07-16T13:29:11.905Z,31.90
2023-07-16T13:30:14.912Z,31.60
2023-07-16T13:31:17.009Z,31.70
2023-07-16T13:32:20.124Z,31.40
2023-07-16T13:33:24.016Z,31.60
2023-07-16T13:34:28.423Z,32.00
2023-07-16T13:35:30.640Z,32.10
2023-07-16T13:36:33.665Z,32.00
2023-07-16T13:37:35.776Z,32.10
2023-07-16T13:38:38.884Z,32.10
2023-07-16T13:39:41.176Z,31.60